sensor_id;sensor_type;location;lat;lon;timestamp;P1;durP1;ratioP1;P2;durP2;ratioP2
49416;SDS011;35290;39.550;8.786;2023-02-04T00:02:08;15.75;;;8.95;;
49416;SDS011;35290;39.550;8.786;2023-02-04T00:04:33;24.27;;;9.73;;
49416;SDS011;35290;39.550;8.786;2023-02-04T00:06:59;22.05;;;9.30;;
49416;SDS011;35290;39.550;8.786;2023-02-04T00:09:24;28.33;;;10.98;;
49416;SDS011;35290;39.550;8.786;2023-02-04T00:11:50;29.55;;;10.07;;
49416;SDS011;35290;39.550;8.786;2023-02-04T00:14:15;26.08;;;9.85;;
49416;SDS011;35290;39.550;8.786;2023-02-04T00:16:41;27.23;;;9.85;;
49416;SDS011;35290;39.550;8.786;2023-02-04T00:19:06;24.33;;;10.18;;
49416;SDS011;35290;39.550;8.786;2023-02-04T00:21:32;23.48;;;10.90;;
49416;SDS011;35290;39.550;8.786;2023-02-04T00:23:57;26.73;;;10.80;;
49416;SDS011;35290;39.550;8.786;2023-02-04T00:26:23;25.73;;;11.80;;
49416;SDS011;35290;39.550;8.786;2023-02-04T00:28:48;22.65;;;10.75;;
49416;SDS011;35290;39.550;8.786;2023-02-04T00:31:14;25.42;;;10.32;;
49416;SDS011;35290;39.550;8.786;2023-02-04T00:33:39;24.17;;;11.25;;
49416;SDS011;35290;39.550;8.786;2023-02-04T00:36:06;22.20;;;11.10;;
49416;SDS011;35290;39.550;8.786;2023-02-04T00:38:32;25.27;;;12.23;;
49416;SDS011;35290;39.550;8.786;2023-02-04T00:40:58;29.80;;;13.00;;
49416;SDS011;35290;39.550;8.786;2023-02-04T00:43:23;19.80;;;12.07;;
49416;SDS011;35290;39.550;8.786;2023-02-04T00:45:50;27.15;;;11.73;;
49416;SDS011;35290;39.550;8.786;2023-02-04T00:48:15;30.60;;;13.30;;
49416;SDS011;35290;39.550;8.786;2023-02-04T00:50:41;22.58;;;11.70;;
49416;SDS011;35290;39.550;8.786;2023-02-04T00:53:06;23.77;;;12.57;;
49416;SDS011;35290;39.550;8.786;2023-02-04T00:55:32;21.50;;;11.35;;
49416;SDS011;35290;39.550;8.786;2023-02-04T00:57:57;26.05;;;11.45;;
49416;SDS011;35290;39.550;8.786;2023-02-04T01:00:23;26.60;;;10.73;;
49416;SDS011;35290;39.550;8.786;2023-02-04T01:02:48;23.13;;;11.05;;
49416;SDS011;35290;39.550;8.786;2023-02-04T01:05:14;21.75;;;10.30;;
49416;SDS011;35290;39.550;8.786;2023-02-04T01:07:40;20.55;;;10.20;;
49416;SDS011;35290;39.550;8.786;2023-02-04T01:10:05;22.27;;;9.88;;
49416;SDS011;35290;39.550;8.786;2023-02-04T01:12:31;29.50;;;12.38;;
49416;SDS011;35290;39.550;8.786;2023-02-04T01:14:57;24.45;;;11.43;;
49416;SDS011;35290;39.550;8.786;2023-02-04T01:17:23;22.98;;;11.85;;
49416;SDS011;35290;39.550;8.786;2023-02-04T01:19:49;24.33;;;12.02;;
49416;SDS011;35290;39.550;8.786;2023-02-04T01:22:14;25.50;;;12.70;;
49416;SDS011;35290;39.550;8.786;2023-02-04T01:24:42;22.17;;;11.55;;
49416;SDS011;35290;39.550;8.786;2023-02-04T01:27:08;22.40;;;12.05;;
49416;SDS011;35290;39.550;8.786;2023-02-04T01:29:33;20.95;;;11.88;;
49416;SDS011;35290;39.550;8.786;2023-02-04T01:31:59;27.50;;;12.10;;
49416;SDS011;35290;39.550;8.786;2023-02-04T01:34:24;23.50;;;11.98;;
49416;SDS011;35290;39.550;8.786;2023-02-04T01:36:50;28.40;;;11.40;;
49416;SDS011;35290;39.550;8.786;2023-02-04T01:39:18;23.95;;;12.80;;
49416;SDS011;35290;39.550;8.786;2023-02-04T01:41:44;24.75;;;12.82;;
49416;SDS011;35290;39.550;8.786;2023-02-04T01:44:09;24.73;;;12.98;;
49416;SDS011;35290;39.550;8.786;2023-02-04T01:46:35;29.67;;;13.13;;
49416;SDS011;35290;39.550;8.786;2023-02-04T01:49:01;25.30;;;12.15;;
49416;SDS011;35290;39.550;8.786;2023-02-04T01:51:27;26.70;;;12.30;;
49416;SDS011;35290;39.550;8.786;2023-02-04T01:53:56;24.40;;;12.70;;
49416;SDS011;35290;39.550;8.786;2023-02-04T01:56:24;23.15;;;11.57;;
49416;SDS011;35290;39.550;8.786;2023-02-04T01:58:51;24.67;;;11.40;;
49416;SDS011;35290;39.550;8.786;2023-02-04T02:01:33;23.33;;;10.95;;
49416;SDS011;35290;39.550;8.786;2023-02-04T02:04:10;14.57;;;7.95;;
49416;SDS011;35290;39.550;8.786;2023-02-04T02:06:38;15.50;;;8.82;;
49416;SDS011;35290;39.550;8.786;2023-02-04T02:09:04;21.10;;;8.85;;
49416;SDS011;35290;39.550;8.786;2023-02-04T02:11:30;18.00;;;9.75;;
49416;SDS011;35290;39.550;8.786;2023-02-04T02:13:56;20.38;;;11.10;;
49416;SDS011;35290;39.550;8.786;2023-02-04T02:16:23;19.67;;;10.35;;
49416;SDS011;35290;39.550;8.786;2023-02-04T02:18:49;18.70;;;9.10;;
49416;SDS011;35290;39.550;8.786;2023-02-04T02:21:18;19.50;;;9.45;;
49416;SDS011;35290;39.550;8.786;2023-02-04T02:26:14;14.18;;;7.63;;
49416;SDS011;35290;39.550;8.786;2023-02-04T02:28:41;14.48;;;7.00;;
49416;SDS011;35290;39.550;8.786;2023-02-04T02:31:06;15.07;;;7.28;;
49416;SDS011;35290;39.550;8.786;2023-02-04T02:33:32;13.95;;;7.50;;
49416;SDS011;35290;39.550;8.786;2023-02-04T02:35:58;14.95;;;6.90;;
49416;SDS011;35290;39.550;8.786;2023-02-04T02:38:23;17.60;;;7.93;;
49416;SDS011;35290;39.550;8.786;2023-02-04T02:40:49;17.67;;;8.15;;
49416;SDS011;35290;39.550;8.786;2023-02-04T02:43:17;15.30;;;6.90;;
49416;SDS011;35290;39.550;8.786;2023-02-04T02:45:45;16.65;;;7.30;;
49416;SDS011;35290;39.550;8.786;2023-02-04T02:48:11;12.50;;;6.72;;
49416;SDS011;35290;39.550;8.786;2023-02-04T02:50:36;16.38;;;7.03;;
49416;SDS011;35290;39.550;8.786;2023-02-04T02:53:09;15.30;;;6.65;;
49416;SDS011;35290;39.550;8.786;2023-02-04T02:55:39;16.08;;;8.18;;
49416;SDS011;35290;39.550;8.786;2023-02-04T03:00:59;17.65;;;6.63;;
49416;SDS011;35290;39.550;8.786;2023-02-04T03:03:26;16.95;;;6.60;;
49416;SDS011;35290;39.550;8.786;2023-02-04T03:05:58;17.42;;;7.05;;
49416;SDS011;35290;39.550;8.786;2023-02-04T03:08:26;15.55;;;6.38;;
49416;SDS011;35290;39.550;8.786;2023-02-04T03:10:52;16.55;;;6.28;;
49416;SDS011;35290;39.550;8.786;2023-02-04T03:13:17;16.00;;;6.05;;
49416;SDS011;35290;39.550;8.786;2023-02-04T03:15:44;18.73;;;6.38;;
49416;SDS011;35290;39.550;8.786;2023-02-04T03:18:11;19.77;;;6.32;;
49416;SDS011;35290;39.550;8.786;2023-02-04T03:20:37;17.40;;;6.47;;
49416;SDS011;35290;39.550;8.786;2023-02-04T03:23:03;13.35;;;5.68;;
49416;SDS011;35290;39.550;8.786;2023-02-04T03:25:29;14.40;;;6.80;;
49416;SDS011;35290;39.550;8.786;2023-02-04T03:27:55;18.00;;;6.75;;
49416;SDS011;35290;39.550;8.786;2023-02-04T03:30:22;20.42;;;6.32;;
49416;SDS011;35290;39.550;8.786;2023-02-04T03:32:48;14.02;;;5.85;;
49416;SDS011;35290;39.550;8.786;2023-02-04T03:35:14;19.58;;;5.75;;
49416;SDS011;35290;39.550;8.786;2023-02-04T03:37:40;14.75;;;5.28;;
49416;SDS011;35290;39.550;8.786;2023-02-04T03:40:05;12.90;;;5.55;;
49416;SDS011;35290;39.550;8.786;2023-02-04T03:42:31;14.98;;;6.68;;
49416;SDS011;35290;39.550;8.786;2023-02-04T03:44:57;17.05;;;6.35;;
49416;SDS011;35290;39.550;8.786;2023-02-04T03:47:22;14.45;;;5.18;;
49416;SDS011;35290;39.550;8.786;2023-02-04T03:49:47;15.52;;;5.78;;
49416;SDS011;35290;39.550;8.786;2023-02-04T03:52:13;17.13;;;5.95;;
49416;SDS011;35290;39.550;8.786;2023-02-04T03:54:38;15.20;;;5.75;;
49416;SDS011;35290;39.550;8.786;2023-02-04T03:57:04;15.90;;;5.72;;
49416;SDS011;35290;39.550;8.786;2023-02-04T03:59:29;16.85;;;6.18;;
49416;SDS011;35290;39.550;8.786;2023-02-04T04:01:55;17.55;;;6.45;;
49416;SDS011;35290;39.550;8.786;2023-02-04T04:04:20;21.70;;;6.53;;
49416;SDS011;35290;39.550;8.786;2023-02-04T04:06:46;13.90;;;5.75;;
49416;SDS011;35290;39.550;8.786;2023-02-04T04:09:11;16.20;;;6.53;;
49416;SDS011;35290;39.550;8.786;2023-02-04T04:11:37;15.25;;;6.13;;
49416;SDS011;35290;39.550;8.786;2023-02-04T04:14:02;15.48;;;5.93;;
49416;SDS011;35290;39.550;8.786;2023-02-04T04:16:28;17.85;;;7.32;;
49416;SDS011;35290;39.550;8.786;2023-02-04T04:18:54;17.98;;;7.65;;
49416;SDS011;35290;39.550;8.786;2023-02-04T04:21:20;19.83;;;7.95;;
49416;SDS011;35290;39.550;8.786;2023-02-04T04:23:45;13.65;;;6.60;;
49416;SDS011;35290;39.550;8.786;2023-02-04T04:26:11;21.23;;;8.52;;
49416;SDS011;35290;39.550;8.786;2023-02-04T04:28:36;21.88;;;6.85;;
49416;SDS011;35290;39.550;8.786;2023-02-04T04:31:02;15.70;;;6.88;;
49416;SDS011;35290;39.550;8.786;2023-02-04T04:33:28;12.82;;;6.78;;
49416;SDS011;35290;39.550;8.786;2023-02-04T04:35:53;18.15;;;7.30;;
49416;SDS011;35290;39.550;8.786;2023-02-04T04:38:19;19.70;;;7.28;;
49416;SDS011;35290;39.550;8.786;2023-02-04T04:40:44;16.27;;;6.82;;
49416;SDS011;35290;39.550;8.786;2023-02-04T04:43:10;17.38;;;6.47;;
49416;SDS011;35290;39.550;8.786;2023-02-04T04:45:36;15.68;;;6.80;;
49416;SDS011;35290;39.550;8.786;2023-02-04T04:48:01;19.38;;;6.18;;
49416;SDS011;35290;39.550;8.786;2023-02-04T04:50:27;17.83;;;6.63;;
49416;SDS011;35290;39.550;8.786;2023-02-04T04:52:52;16.30;;;6.72;;
49416;SDS011;35290;39.550;8.786;2023-02-04T04:55:18;16.27;;;7.32;;
49416;SDS011;35290;39.550;8.786;2023-02-04T04:57:43;20.88;;;7.40;;
49416;SDS011;35290;39.550;8.786;2023-02-04T05:00:09;15.02;;;6.13;;
49416;SDS011;35290;39.550;8.786;2023-02-04T05:02:36;20.60;;;7.55;;
49416;SDS011;35290;39.550;8.786;2023-02-04T05:05:01;16.63;;;7.38;;
49416;SDS011;35290;39.550;8.786;2023-02-04T05:07:27;14.52;;;7.15;;
49416;SDS011;35290;39.550;8.786;2023-02-04T05:09:52;17.58;;;7.30;;
49416;SDS011;35290;39.550;8.786;2023-02-04T05:12:21;16.67;;;7.85;;
49416;SDS011;35290;39.550;8.786;2023-02-04T05:14:46;21.05;;;6.60;;
49416;SDS011;35290;39.550;8.786;2023-02-04T05:17:12;20.98;;;6.13;;
49416;SDS011;35290;39.550;8.786;2023-02-04T05:19:41;16.73;;;6.20;;
49416;SDS011;35290;39.550;8.786;2023-02-04T05:22:06;17.20;;;5.97;;
49416;SDS011;35290;39.550;8.786;2023-02-04T05:24:32;18.50;;;5.68;;
49416;SDS011;35290;39.550;8.786;2023-02-04T05:26:57;16.65;;;5.78;;
49416;SDS011;35290;39.550;8.786;2023-02-04T05:29:23;13.18;;;5.15;;
49416;SDS011;35290;39.550;8.786;2023-02-04T05:31:49;13.68;;;5.68;;
49416;SDS011;35290;39.550;8.786;2023-02-04T05:34:14;14.82;;;5.82;;
49416;SDS011;35290;39.550;8.786;2023-02-04T05:36:39;20.67;;;6.05;;
49416;SDS011;35290;39.550;8.786;2023-02-04T05:39:05;19.15;;;7.80;;
49416;SDS011;35290;39.550;8.786;2023-02-04T05:41:30;20.52;;;7.75;;
49416;SDS011;35290;39.550;8.786;2023-02-04T05:43:56;26.13;;;9.85;;
49416;SDS011;35290;39.550;8.786;2023-02-04T05:46:21;23.00;;;8.55;;
49416;SDS011;35290;39.550;8.786;2023-02-04T05:48:47;24.77;;;10.20;;
49416;SDS011;35290;39.550;8.786;2023-02-04T05:51:12;57.67;;;28.75;;
49416;SDS011;35290;39.550;8.786;2023-02-04T05:53:38;57.28;;;26.50;;
49416;SDS011;35290;39.550;8.786;2023-02-04T05:56:03;40.05;;;18.77;;
49416;SDS011;35290;39.550;8.786;2023-02-04T05:58:30;28.55;;;15.10;;
49416;SDS011;35290;39.550;8.786;2023-02-04T06:01:00;30.13;;;14.27;;
49416;SDS011;35290;39.550;8.786;2023-02-04T06:03:27;27.77;;;12.70;;
49416;SDS011;35290;39.550;8.786;2023-02-04T06:05:54;28.95;;;12.80;;
49416;SDS011;35290;39.550;8.786;2023-02-04T06:08:20;25.02;;;10.80;;
49416;SDS011;35290;39.550;8.786;2023-02-04T06:10:46;24.20;;;10.15;;
49416;SDS011;35290;39.550;8.786;2023-02-04T06:13:11;21.75;;;10.55;;
49416;SDS011;35290;39.550;8.786;2023-02-04T06:15:37;25.35;;;10.68;;
49416;SDS011;35290;39.550;8.786;2023-02-04T06:18:02;24.48;;;9.77;;
49416;SDS011;35290;39.550;8.786;2023-02-04T06:20:28;22.95;;;9.85;;
49416;SDS011;35290;39.550;8.786;2023-02-04T06:22:53;20.15;;;8.32;;
49416;SDS011;35290;39.550;8.786;2023-02-04T06:25:20;22.85;;;7.70;;
49416;SDS011;35290;39.550;8.786;2023-02-04T06:27:46;23.85;;;8.65;;
49416;SDS011;35290;39.550;8.786;2023-02-04T06:30:11;18.88;;;8.20;;
49416;SDS011;35290;39.550;8.786;2023-02-04T06:32:37;24.13;;;8.85;;
49416;SDS011;35290;39.550;8.786;2023-02-04T06:35:03;17.75;;;8.88;;
49416;SDS011;35290;39.550;8.786;2023-02-04T06:37:30;19.58;;;10.10;;
49416;SDS011;35290;39.550;8.786;2023-02-04T06:39:56;17.27;;;7.13;;
49416;SDS011;35290;39.550;8.786;2023-02-04T06:42:22;25.42;;;9.65;;
49416;SDS011;35290;39.550;8.786;2023-02-04T06:44:50;21.80;;;7.38;;
49416;SDS011;35290;39.550;8.786;2023-02-04T06:47:16;17.05;;;7.80;;
49416;SDS011;35290;39.550;8.786;2023-02-04T06:49:42;17.60;;;6.35;;
49416;SDS011;35290;39.550;8.786;2023-02-04T06:52:10;19.77;;;7.45;;
49416;SDS011;35290;39.550;8.786;2023-02-04T06:54:36;24.45;;;9.07;;
49416;SDS011;35290;39.550;8.786;2023-02-04T06:57:02;36.63;;;15.55;;
49416;SDS011;35290;39.550;8.786;2023-02-04T06:59:37;40.28;;;15.18;;
49416;SDS011;35290;39.550;8.786;2023-02-04T07:02:04;32.22;;;11.57;;
49416;SDS011;35290;39.550;8.786;2023-02-04T07:04:31;34.08;;;12.98;;
49416;SDS011;35290;39.550;8.786;2023-02-04T07:06:57;31.75;;;11.80;;
49416;SDS011;35290;39.550;8.786;2023-02-04T07:09:22;23.67;;;9.38;;
49416;SDS011;35290;39.550;8.786;2023-02-04T07:11:48;17.35;;;6.10;;
49416;SDS011;35290;39.550;8.786;2023-02-04T07:14:15;20.60;;;5.97;;
49416;SDS011;35290;39.550;8.786;2023-02-04T07:16:41;19.20;;;5.88;;
49416;SDS011;35290;39.550;8.786;2023-02-04T07:19:06;24.17;;;8.45;;
49416;SDS011;35290;39.550;8.786;2023-02-04T07:21:32;22.38;;;11.65;;
49416;SDS011;35290;39.550;8.786;2023-02-04T07:23:57;24.33;;;11.50;;
49416;SDS011;35290;39.550;8.786;2023-02-04T07:26:23;28.45;;;12.80;;
49416;SDS011;35290;39.550;8.786;2023-02-04T07:28:48;23.77;;;11.05;;
49416;SDS011;35290;39.550;8.786;2023-02-04T07:31:14;20.67;;;9.07;;
49416;SDS011;35290;39.550;8.786;2023-02-04T07:33:39;32.78;;;12.63;;
49416;SDS011;35290;39.550;8.786;2023-02-04T07:36:05;23.70;;;10.63;;
49416;SDS011;35290;39.550;8.786;2023-02-04T07:38:31;25.58;;;10.85;;
49416;SDS011;35290;39.550;8.786;2023-02-04T07:40:56;24.08;;;10.13;;
49416;SDS011;35290;39.550;8.786;2023-02-04T07:43:22;25.02;;;11.02;;
49416;SDS011;35290;39.550;8.786;2023-02-04T07:45:49;25.95;;;12.00;;
49416;SDS011;35290;39.550;8.786;2023-02-04T07:48:17;26.42;;;11.38;;
49416;SDS011;35290;39.550;8.786;2023-02-04T07:50:43;27.83;;;12.85;;
49416;SDS011;35290;39.550;8.786;2023-02-04T07:53:08;23.50;;;12.23;;
49416;SDS011;35290;39.550;8.786;2023-02-04T07:55:34;25.63;;;13.75;;
49416;SDS011;35290;39.550;8.786;2023-02-04T07:57:59;28.10;;;15.30;;
49416;SDS011;35290;39.550;8.786;2023-02-04T08:00:27;25.48;;;15.02;;
49416;SDS011;35290;39.550;8.786;2023-02-04T08:02:52;27.70;;;14.45;;
49416;SDS011;35290;39.550;8.786;2023-02-04T08:05:18;43.97;;;24.75;;
49416;SDS011;35290;39.550;8.786;2023-02-04T08:07:44;42.67;;;26.17;;
49416;SDS011;35290;39.550;8.786;2023-02-04T08:10:10;35.60;;;21.90;;
49416;SDS011;35290;39.550;8.786;2023-02-04T08:12:35;39.78;;;20.48;;
49416;SDS011;35290;39.550;8.786;2023-02-04T08:15:01;47.20;;;25.25;;
49416;SDS011;35290;39.550;8.786;2023-02-04T08:17:28;40.63;;;25.05;;
49416;SDS011;35290;39.550;8.786;2023-02-04T08:19:54;44.67;;;25.85;;
49416;SDS011;35290;39.550;8.786;2023-02-04T08:22:20;45.67;;;28.30;;
49416;SDS011;35290;39.550;8.786;2023-02-04T08:24:46;58.13;;;36.22;;
49416;SDS011;35290;39.550;8.786;2023-02-04T08:27:11;50.17;;;29.23;;
49416;SDS011;35290;39.550;8.786;2023-02-04T08:29:37;45.80;;;27.73;;
49416;SDS011;35290;39.550;8.786;2023-02-04T08:32:03;53.63;;;29.35;;
49416;SDS011;35290;39.550;8.786;2023-02-04T08:34:29;49.85;;;27.35;;
49416;SDS011;35290;39.550;8.786;2023-02-04T08:36:54;48.78;;;23.55;;
49416;SDS011;35290;39.550;8.786;2023-02-04T08:39:20;54.03;;;27.50;;
49416;SDS011;35290;39.550;8.786;2023-02-04T08:41:45;48.15;;;27.17;;
49416;SDS011;35290;39.550;8.786;2023-02-04T08:44:13;50.90;;;26.67;;
49416;SDS011;35290;39.550;8.786;2023-02-04T08:46:42;42.83;;;22.10;;
49416;SDS011;35290;39.550;8.786;2023-02-04T08:49:07;39.95;;;19.52;;
49416;SDS011;35290;39.550;8.786;2023-02-04T08:51:33;35.30;;;18.60;;
49416;SDS011;35290;39.550;8.786;2023-02-04T08:53:59;38.55;;;19.50;;
49416;SDS011;35290;39.550;8.786;2023-02-04T08:56:25;31.80;;;16.15;;
49416;SDS011;35290;39.550;8.786;2023-02-04T08:58:50;33.13;;;13.48;;
49416;SDS011;35290;39.550;8.786;2023-02-04T09:01:18;26.10;;;10.98;;
49416;SDS011;35290;39.550;8.786;2023-02-04T09:03:44;24.50;;;10.23;;
49416;SDS011;35290;39.550;8.786;2023-02-04T09:06:10;22.10;;;7.70;;
49416;SDS011;35290;39.550;8.786;2023-02-04T09:08:35;25.30;;;5.90;;
49416;SDS011;35290;39.550;8.786;2023-02-04T09:11:01;22.00;;;6.63;;
49416;SDS011;35290;39.550;8.786;2023-02-04T09:13:28;24.92;;;9.57;;
49416;SDS011;35290;39.550;8.786;2023-02-04T09:15:54;20.75;;;7.00;;
49416;SDS011;35290;39.550;8.786;2023-02-04T09:18:20;17.58;;;5.38;;
49416;SDS011;35290;39.550;8.786;2023-02-04T09:20:49;14.90;;;4.63;;
49416;SDS011;35290;39.550;8.786;2023-02-04T09:23:15;16.65;;;3.22;;
49416;SDS011;35290;39.550;8.786;2023-02-04T09:25:42;14.55;;;3.70;;
49416;SDS011;35290;39.550;8.786;2023-02-04T09:28:08;16.90;;;4.05;;
49416;SDS011;35290;39.550;8.786;2023-02-04T09:30:36;29.85;;;7.72;;
49416;SDS011;35290;39.550;8.786;2023-02-04T09:33:05;28.60;;;8.75;;
49416;SDS011;35290;39.550;8.786;2023-02-04T09:35:32;24.77;;;8.35;;
49416;SDS011;35290;39.550;8.786;2023-02-04T09:37:57;22.73;;;9.07;;
49416;SDS011;35290;39.550;8.786;2023-02-04T09:40:23;47.25;;;18.17;;
49416;SDS011;35290;39.550;8.786;2023-02-04T09:42:52;28.40;;;10.70;;
49416;SDS011;35290;39.550;8.786;2023-02-04T09:45:27;21.35;;;6.50;;
49416;SDS011;35290;39.550;8.786;2023-02-04T09:47:55;21.30;;;6.43;;
49416;SDS011;35290;39.550;8.786;2023-02-04T09:50:22;23.52;;;6.50;;
49416;SDS011;35290;39.550;8.786;2023-02-04T09:52:49;23.80;;;5.68;;
49416;SDS011;35290;39.550;8.786;2023-02-04T09:55:16;25.65;;;7.32;;
49416;SDS011;35290;39.550;8.786;2023-02-04T09:57:44;41.60;;;12.50;;
49416;SDS011;35290;39.550;8.786;2023-02-04T10:02:43;60.35;;;25.77;;
49416;SDS011;35290;39.550;8.786;2023-02-04T10:05:12;46.00;;;19.92;;
49416;SDS011;35290;39.550;8.786;2023-02-04T10:07:43;63.92;;;23.40;;
49416;SDS011;35290;39.550;8.786;2023-02-04T10:10:14;42.42;;;14.73;;
49416;SDS011;35290;39.550;8.786;2023-02-04T10:12:49;52.47;;;17.20;;
49416;SDS011;35290;39.550;8.786;2023-02-04T10:15:16;31.58;;;10.60;;
49416;SDS011;35290;39.550;8.786;2023-02-04T10:17:46;59.17;;;23.27;;
49416;SDS011;35290;39.550;8.786;2023-02-04T10:20:17;52.92;;;23.15;;
49416;SDS011;35290;39.550;8.786;2023-02-04T10:22:47;33.17;;;10.90;;
49416;SDS011;35290;39.550;8.786;2023-02-04T10:25:14;22.35;;;7.97;;
49416;SDS011;35290;39.550;8.786;2023-02-04T10:27:50;17.63;;;5.18;;
49416;SDS011;35290;39.550;8.786;2023-02-04T10:30:24;28.08;;;6.57;;
49416;SDS011;35290;39.550;8.786;2023-02-04T10:35:49;27.30;;;6.35;;
49416;SDS011;35290;39.550;8.786;2023-02-04T10:38:17;28.73;;;10.05;;
49416;SDS011;35290;39.550;8.786;2023-02-04T10:40:43;29.00;;;6.95;;
49416;SDS011;35290;39.550;8.786;2023-02-04T10:43:31;24.85;;;6.25;;
49416;SDS011;35290;39.550;8.786;2023-02-04T10:46:02;28.45;;;7.25;;
49416;SDS011;35290;39.550;8.786;2023-02-04T10:50:54;32.15;;;9.48;;
49416;SDS011;35290;39.550;8.786;2023-02-04T10:53:21;28.60;;;7.03;;
49416;SDS011;35290;39.550;8.786;2023-02-04T10:56:19;31.10;;;6.90;;
49416;SDS011;35290;39.550;8.786;2023-02-04T10:58:45;25.35;;;6.57;;
49416;SDS011;35290;39.550;8.786;2023-02-04T11:01:12;24.67;;;6.68;;
49416;SDS011;35290;39.550;8.786;2023-02-04T11:03:39;29.67;;;8.48;;
49416;SDS011;35290;39.550;8.786;2023-02-04T11:06:11;31.10;;;8.95;;
49416;SDS011;35290;39.550;8.786;2023-02-04T11:08:40;29.27;;;8.43;;
49416;SDS011;35290;39.550;8.786;2023-02-04T11:11:06;31.95;;;7.88;;
49416;SDS011;35290;39.550;8.786;2023-02-04T11:13:40;31.05;;;7.43;;
49416;SDS011;35290;39.550;8.786;2023-02-04T11:16:10;26.95;;;7.40;;
49416;SDS011;35290;39.550;8.786;2023-02-04T11:18:46;33.45;;;9.52;;
49416;SDS011;35290;39.550;8.786;2023-02-04T11:26:44;25.08;;;5.50;;
49416;SDS011;35290;39.550;8.786;2023-02-04T11:42:18;29.92;;;6.13;;
49416;SDS011;35290;39.550;8.786;2023-02-04T11:44:57;21.77;;;4.60;;
49416;SDS011;35290;39.550;8.786;2023-02-04T11:47:24;31.80;;;4.82;;
49416;SDS011;35290;39.550;8.786;2023-02-04T11:49:56;29.10;;;5.40;;
49416;SDS011;35290;39.550;8.786;2023-02-04T11:52:23;21.75;;;5.57;;
49416;SDS011;35290;39.550;8.786;2023-02-04T11:54:53;28.40;;;5.85;;
49416;SDS011;35290;39.550;8.786;2023-02-04T11:57:19;24.17;;;4.78;;
49416;SDS011;35290;39.550;8.786;2023-02-04T11:59:45;22.58;;;4.47;;
49416;SDS011;35290;39.550;8.786;2023-02-04T12:02:18;36.78;;;5.82;;
49416;SDS011;35290;39.550;8.786;2023-02-04T12:04:55;31.20;;;6.22;;
49416;SDS011;35290;39.550;8.786;2023-02-04T12:07:27;24.35;;;5.55;;
49416;SDS011;35290;39.550;8.786;2023-02-04T12:09:53;22.83;;;5.30;;
49416;SDS011;35290;39.550;8.786;2023-02-04T12:12:27;23.75;;;6.15;;
49416;SDS011;35290;39.550;8.786;2023-02-04T12:15:08;36.75;;;10.02;;
49416;SDS011;35290;39.550;8.786;2023-02-04T12:17:39;22.90;;;6.07;;
49416;SDS011;35290;39.550;8.786;2023-02-04T12:20:07;28.98;;;7.15;;
49416;SDS011;35290;39.550;8.786;2023-02-04T12:22:33;27.63;;;5.63;;
49416;SDS011;35290;39.550;8.786;2023-02-04T12:24:59;25.60;;;5.55;;
49416;SDS011;35290;39.550;8.786;2023-02-04T12:27:24;26.25;;;5.68;;
49416;SDS011;35290;39.550;8.786;2023-02-04T12:29:50;25.40;;;5.47;;
49416;SDS011;35290;39.550;8.786;2023-02-04T12:32:15;20.38;;;5.15;;
49416;SDS011;35290;39.550;8.786;2023-02-04T12:34:47;21.10;;;5.65;;
49416;SDS011;35290;39.550;8.786;2023-02-04T12:37:15;22.85;;;5.57;;
49416;SDS011;35290;39.550;8.786;2023-02-04T12:39:41;17.60;;;4.68;;
49416;SDS011;35290;39.550;8.786;2023-02-04T12:42:06;26.35;;;6.53;;
49416;SDS011;35290;39.550;8.786;2023-02-04T12:44:32;21.15;;;6.15;;
49416;SDS011;35290;39.550;8.786;2023-02-04T12:46:59;40.80;;;11.48;;
49416;SDS011;35290;39.550;8.786;2023-02-04T12:49:25;27.60;;;7.50;;
49416;SDS011;35290;39.550;8.786;2023-02-04T12:51:51;20.23;;;5.93;;
49416;SDS011;35290;39.550;8.786;2023-02-04T12:54:17;17.33;;;5.32;;
49416;SDS011;35290;39.550;8.786;2023-02-04T12:56:42;21.55;;;5.80;;
49416;SDS011;35290;39.550;8.786;2023-02-04T12:59:08;24.83;;;4.97;;
49416;SDS011;35290;39.550;8.786;2023-02-04T13:01:33;23.92;;;6.30;;
49416;SDS011;35290;39.550;8.786;2023-02-04T13:03:59;26.70;;;4.40;;
49416;SDS011;35290;39.550;8.786;2023-02-04T13:06:27;19.92;;;4.32;;
49416;SDS011;35290;39.550;8.786;2023-02-04T13:08:53;21.90;;;5.82;;
49416;SDS011;35290;39.550;8.786;2023-02-04T13:11:18;27.13;;;6.82;;
49416;SDS011;35290;39.550;8.786;2023-02-04T13:13:44;29.85;;;5.82;;
49416;SDS011;35290;39.550;8.786;2023-02-04T13:16:09;22.23;;;5.65;;
49416;SDS011;35290;39.550;8.786;2023-02-04T13:18:35;29.75;;;5.80;;
49416;SDS011;35290;39.550;8.786;2023-02-04T13:21:00;27.05;;;5.15;;
49416;SDS011;35290;39.550;8.786;2023-02-04T13:23:26;25.17;;;4.72;;
49416;SDS011;35290;39.550;8.786;2023-02-04T13:25:52;24.38;;;6.28;;
49416;SDS011;35290;39.550;8.786;2023-02-04T13:28:17;26.75;;;6.10;;
49416;SDS011;35290;39.550;8.786;2023-02-04T13:30:43;24.75;;;5.07;;
49416;SDS011;35290;39.550;8.786;2023-02-04T13:33:08;26.42;;;6.25;;
49416;SDS011;35290;39.550;8.786;2023-02-04T13:35:34;28.17;;;5.63;;
49416;SDS011;35290;39.550;8.786;2023-02-04T13:37:59;21.60;;;4.90;;
49416;SDS011;35290;39.550;8.786;2023-02-04T13:43:11;26.42;;;6.47;;
49416;SDS011;35290;39.550;8.786;2023-02-04T13:45:36;24.65;;;4.53;;
49416;SDS011;35290;39.550;8.786;2023-02-04T13:48:02;25.05;;;3.97;;
49416;SDS011;35290;39.550;8.786;2023-02-04T13:50:27;22.77;;;4.63;;
49416;SDS011;35290;39.550;8.786;2023-02-04T13:52:53;26.00;;;4.70;;
49416;SDS011;35290;39.550;8.786;2023-02-04T13:55:19;19.52;;;3.88;;
49416;SDS011;35290;39.550;8.786;2023-02-04T13:57:45;19.90;;;3.60;;
49416;SDS011;35290;39.550;8.786;2023-02-04T14:00:11;24.65;;;4.85;;
49416;SDS011;35290;39.550;8.786;2023-02-04T14:02:37;22.13;;;5.13;;
49416;SDS011;35290;39.550;8.786;2023-02-04T14:05:02;20.67;;;4.32;;
49416;SDS011;35290;39.550;8.786;2023-02-04T14:07:28;24.88;;;5.25;;
49416;SDS011;35290;39.550;8.786;2023-02-04T14:09:54;23.15;;;4.07;;
49416;SDS011;35290;39.550;8.786;2023-02-04T14:12:20;23.77;;;4.72;;
49416;SDS011;35290;39.550;8.786;2023-02-04T14:14:46;22.30;;;4.50;;
49416;SDS011;35290;39.550;8.786;2023-02-04T14:17:11;29.33;;;5.50;;
49416;SDS011;35290;39.550;8.786;2023-02-04T14:19:37;26.65;;;6.03;;
49416;SDS011;35290;39.550;8.786;2023-02-04T14:22:02;24.00;;;5.57;;
49416;SDS011;35290;39.550;8.786;2023-02-04T14:24:28;29.25;;;6.60;;
49416;SDS011;35290;39.550;8.786;2023-02-04T14:26:53;25.42;;;7.30;;
49416;SDS011;35290;39.550;8.786;2023-02-04T14:29:20;38.25;;;8.90;;
49416;SDS011;35290;39.550;8.786;2023-02-04T14:31:48;27.70;;;7.68;;
49416;SDS011;35290;39.550;8.786;2023-02-04T14:34:14;31.58;;;7.30;;
49416;SDS011;35290;39.550;8.786;2023-02-04T14:36:40;29.73;;;7.60;;
49416;SDS011;35290;39.550;8.786;2023-02-04T14:39:05;23.98;;;6.90;;
49416;SDS011;35290;39.550;8.786;2023-02-04T14:41:31;26.50;;;6.20;;
49416;SDS011;35290;39.550;8.786;2023-02-04T14:43:56;28.92;;;5.57;;
49416;SDS011;35290;39.550;8.786;2023-02-04T14:46:22;29.77;;;6.40;;
49416;SDS011;35290;39.550;8.786;2023-02-04T14:48:48;24.27;;;5.63;;
49416;SDS011;35290;39.550;8.786;2023-02-04T14:51:16;31.80;;;6.15;;
49416;SDS011;35290;39.550;8.786;2023-02-04T14:53:42;27.92;;;5.50;;
49416;SDS011;35290;39.550;8.786;2023-02-04T14:56:07;28.65;;;5.55;;
49416;SDS011;35290;39.550;8.786;2023-02-04T14:58:33;34.85;;;7.50;;
49416;SDS011;35290;39.550;8.786;2023-02-04T15:01:01;31.00;;;6.90;;
49416;SDS011;35290;39.550;8.786;2023-02-04T15:03:26;26.65;;;5.30;;